createdAt,value
2018-07-12T00:02:02.752Z,3.77
2018-07-12T00:04:30.311Z,4.53
2018-07-12T00:06:57.714Z,2.87
2018-07-12T00:09:25.317Z,3.87
2018-07-12T00:11:52.775Z,2.95
2018-07-12T00:14:20.300Z,9.30
2018-07-12T00:16:47.777Z,2.95
2018-07-12T00:19:15.305Z,2.25
2018-07-12T00:21:42.705Z,5.30
2018-07-12T00:24:10.445Z,3.12
2018-07-12T00:26:37.991Z,2.58
2018-07-12T00:29:05.533Z,3.70
2018-07-12T00:31:33.260Z,4.10
2018-07-12T00:34:00.819Z,3.75
2018-07-12T00:36:28.386Z,2.42
2018-07-12T00:38:55.948Z,3.33
2018-07-12T00:41:23.536Z,2.60
2018-07-12T00:43:51.135Z,2.90
2018-07-12T00:46:18.580Z,3.80
2018-07-12T00:48:46.049Z,3.08
2018-07-12T00:51:13.457Z,3.45
2018-07-12T00:53:40.956Z,2.75
2018-07-12T00:56:08.469Z,2.87
2018-07-12T00:58:35.927Z,2.52
2018-07-12T01:01:03.709Z,3.02
2018-07-12T01:03:31.337Z,2.75
2018-07-12T01:05:58.762Z,3.52
2018-07-12T01:08:26.211Z,2.83
2018-07-12T01:10:53.728Z,4.12
2018-07-12T01:13:21.130Z,2.60
2018-07-12T01:15:49.414Z,3.17
2018-07-12T01:18:17.014Z,3.25
2018-07-12T01:20:44.529Z,3.00
2018-07-12T01:23:12.145Z,2.45
2018-07-12T01:25:39.690Z,2.58
2018-07-12T01:28:07.093Z,2.92
2018-07-12T01:30:34.603Z,2.58
2018-07-12T01:33:02.062Z,2.85
2018-07-12T01:35:29.519Z,2.98
2018-07-12T01:37:56.993Z,3.15
2018-07-12T01:40:24.494Z,4.33
2018-07-12T01:42:52.086Z,4.22
2018-07-12T01:45:19.525Z,2.55
2018-07-12T01:47:47.086Z,2.83
2018-07-12T01:50:14.624Z,3.85
2018-07-12T01:52:42.195Z,4.47
2018-07-12T01:55:09.713Z,3.85
2018-07-12T01:57:37.217Z,2.67
2018-07-12T02:00:04.747Z,2.52
2018-07-12T02:02:32.279Z,3.35
2018-07-12T02:04:59.730Z,2.58
2018-07-12T02:07:27.241Z,4.72
2018-07-12T02:09:54.854Z,3.37
2018-07-12T02:12:22.470Z,2.50
2018-07-12T02:14:49.883Z,3.62
2018-07-12T02:17:17.451Z,2.70
2018-07-12T02:19:44.907Z,4.72
2018-07-12T02:22:12.361Z,2.35
2018-07-12T02:24:39.914Z,3.02
2018-07-12T02:27:07.315Z,3.55
2018-07-12T02:29:34.898Z,3.47
2018-07-12T02:32:02.582Z,3.55
2018-07-12T02:34:30.051Z,3.42
2018-07-12T02:36:57.531Z,3.40
2018-07-12T02:39:25.038Z,2.60
2018-07-12T02:41:52.539Z,3.37
2018-07-12T02:44:19.982Z,3.02
2018-07-12T02:46:47.473Z,2.42
2018-07-12T02:49:15.269Z,2.60
2018-07-12T02:51:42.769Z,2.77
2018-07-12T02:54:10.384Z,2.92
2018-07-12T02:56:37.903Z,2.62
2018-07-12T02:59:05.411Z,2.87
2018-07-12T03:01:32.823Z,3.47
2018-07-12T03:04:00.255Z,2.85
2018-07-12T03:06:27.913Z,2.90
2018-07-12T03:08:55.413Z,3.30
2018-07-12T03:11:22.847Z,2.87
2018-07-12T03:13:50.284Z,2.72
2018-07-12T03:16:17.706Z,3.45
2018-07-12T03:18:45.218Z,3.05
2018-07-12T03:21:12.629Z,3.87
2018-07-12T03:23:40.118Z,2.50
2018-07-12T03:26:07.695Z,3.17
2018-07-12T03:28:35.239Z,3.17
2018-07-12T03:31:02.782Z,5.12
2018-07-12T03:33:30.337Z,2.98
2018-07-12T03:35:57.956Z,2.60
2018-07-12T03:38:25.549Z,2.75
2018-07-12T03:40:53.120Z,3.22
2018-07-12T03:43:20.698Z,3.20
2018-07-12T03:45:48.181Z,2.67
2018-07-12T03:48:15.688Z,2.75
2018-07-12T03:50:43.099Z,2.50
2018-07-12T03:53:10.547Z,2.50
2018-07-12T03:55:38.016Z,2.87
2018-07-12T03:58:05.510Z,2.92
2018-07-12T04:00:33.087Z,3.85
2018-07-12T04:03:00.695Z,3.37
2018-07-12T04:05:28.237Z,3.22
2018-07-12T04:07:55.932Z,3.00
2018-07-12T04:10:23.578Z,3.25
2018-07-12T04:12:51.499Z,2.98
2018-07-12T04:15:19.121Z,3.05
2018-07-12T04:17:46.612Z,2.87
2018-07-12T04:20:14.053Z,3.92
2018-07-12T04:22:41.658Z,3.98
2018-07-12T04:25:09.079Z,2.92
2018-07-12T04:27:36.604Z,3.30
2018-07-12T04:30:03.992Z,3.77
2018-07-12T04:32:31.558Z,3.12
2018-07-12T04:34:59.060Z,3.30
2018-07-12T04:37:26.656Z,3.30
2018-07-12T04:39:54.139Z,3.20
2018-07-12T04:42:21.681Z,2.65
2018-07-12T04:44:49.141Z,4.00
2018-07-12T04:47:16.658Z,3.70
2018-07-12T04:49:44.093Z,2.75
2018-07-12T04:52:11.816Z,3.37
2018-07-12T04:54:39.259Z,3.27
2018-07-12T04:57:06.802Z,3.12
2018-07-12T04:59:34.425Z,2.50
2018-07-12T05:02:02.345Z,3.10
2018-07-12T05:04:29.815Z,5.83
2018-07-12T05:06:57.332Z,3.12
2018-07-12T05:09:24.886Z,3.25
2018-07-12T05:11:52.503Z,3.30
2018-07-12T05:14:20.164Z,3.08
2018-07-12T05:16:47.621Z,2.60
2018-07-12T05:19:15.169Z,2.92
2018-07-12T05:21:42.601Z,2.95
2018-07-12T05:24:10.100Z,3.27
2018-07-12T05:26:37.554Z,3.10
2018-07-12T05:29:05.031Z,3.20
2018-07-12T05:31:32.537Z,3.83
2018-07-12T05:34:00.214Z,3.75
2018-07-12T05:53:56.133Z,3.15
2018-07-12T05:56:54.822Z,3.67
2018-07-12T05:59:52.698Z,5.22
2018-07-12T06:02:50.579Z,2.70
2018-07-12T06:05:48.473Z,3.02
2018-07-12T06:08:46.240Z,2.58
2018-07-12T06:11:44.289Z,3.08
2018-07-12T06:14:42.052Z,3.90
2018-07-12T06:17:40.003Z,2.55
2018-07-12T06:20:37.822Z,2.87
2018-07-12T06:23:35.978Z,3.45
2018-07-12T06:26:34.315Z,3.27
2018-07-12T06:29:32.150Z,6.85
2018-07-12T06:32:29.998Z,4.92
2018-07-12T06:35:28.054Z,3.02
2018-07-12T06:38:25.822Z,5.37
2018-07-12T06:41:24.653Z,3.25
2018-07-12T06:44:22.529Z,3.87
2018-07-12T06:47:20.607Z,3.60
2018-07-12T06:50:18.430Z,3.58
2018-07-12T06:53:16.446Z,4.25
2018-07-12T06:56:14.226Z,3.52
2018-07-12T06:59:12.223Z,3.17
2018-07-12T07:02:09.910Z,4.33
2018-07-12T07:05:07.830Z,4.35
2018-07-12T07:08:05.422Z,5.35
2018-07-12T07:11:03.474Z,4.72
2018-07-12T07:14:01.093Z,4.53
2018-07-12T07:16:58.932Z,3.47
2018-07-12T07:19:56.878Z,4.53
2018-07-12T07:23:03.842Z,2.77
2018-07-12T07:26:01.858Z,3.50
2018-07-12T07:29:00.755Z,4.05
2018-07-12T07:31:58.766Z,2.77
2018-07-12T07:34:56.655Z,4.40
2018-07-12T07:37:54.488Z,3.87
2018-07-12T07:40:52.460Z,3.08
2018-07-12T07:43:49.992Z,2.80
2018-07-12T07:46:47.896Z,3.45
2018-07-12T07:49:45.739Z,2.95
2018-07-12T07:52:43.678Z,3.80
2018-07-12T07:55:41.513Z,3.67
2018-07-12T07:58:40.134Z,2.27
2018-07-12T08:01:37.883Z,2.45
2018-07-12T08:04:35.994Z,3.02
2018-07-12T08:07:33.711Z,3.20
2018-07-12T08:10:31.561Z,2.70
2018-07-12T08:13:29.337Z,4.90
2018-07-12T08:16:27.357Z,3.40
2018-07-12T08:19:25.251Z,4.65
2018-07-12T08:22:28.012Z,3.10
2018-07-12T08:25:25.997Z,3.20
2018-07-12T08:28:37.832Z,3.05
2018-07-12T08:31:35.613Z,4.15
2018-07-12T08:34:34.624Z,3.27
2018-07-12T08:37:32.474Z,4.47
2018-07-12T08:40:30.371Z,3.27
2018-07-12T08:43:28.208Z,3.42
2018-07-12T08:46:26.012Z,3.40
2018-07-12T08:49:24.719Z,3.33
2018-07-12T08:52:22.456Z,3.55
2018-07-12T08:55:20.214Z,3.62
2018-07-12T08:58:18.113Z,5.67
2018-07-12T09:01:15.818Z,5.05
2018-07-12T09:04:13.709Z,13.38
2018-07-12T09:07:11.622Z,10.95
2018-07-12T09:10:09.469Z,13.08
2018-07-12T09:13:07.328Z,22.25
2018-07-12T09:16:05.785Z,17.30
2018-07-12T09:19:03.316Z,11.75
2018-07-12T09:22:01.413Z,12.28
2018-07-12T09:24:59.253Z,13.75
2018-07-12T09:27:57.695Z,10.43
2018-07-12T09:30:56.615Z,10.38
2018-07-12T09:33:55.404Z,14.63
2018-07-12T09:36:54.384Z,8.15
2018-07-12T09:39:52.254Z,8.83
2018-07-12T09:42:49.895Z,13.40
2018-07-12T09:45:47.589Z,8.60
2018-07-12T09:48:47.612Z,9.20
2018-07-12T09:51:45.569Z,9.65
2018-07-12T09:54:43.263Z,8.18
2018-07-12T09:57:54.331Z,7.00
2018-07-12T10:00:58.007Z,9.93
2018-07-12T10:04:00.122Z,6.67
2018-07-12T10:06:59.905Z,6.45
2018-07-12T10:10:04.305Z,7.15
2018-07-12T10:13:07.697Z,4.33
2018-07-12T10:16:12.733Z,5.33
2018-07-12T10:19:10.465Z,6.05
2018-07-12T10:22:08.298Z,5.78
2018-07-12T10:25:06.986Z,7.22
2018-07-12T10:28:04.969Z,6.65
2018-07-12T10:31:03.333Z,4.67
2018-07-12T10:34:01.619Z,5.95
2018-07-12T10:36:59.362Z,8.80
2018-07-12T10:39:57.560Z,11.35
2018-07-12T10:42:55.080Z,6.42
2018-07-12T10:45:52.986Z,6.15
2018-07-12T10:48:51.230Z,11.33
2018-07-12T10:51:49.566Z,5.15
2018-07-12T10:54:47.358Z,10.48
2018-07-12T10:57:45.298Z,20.02
2018-07-12T11:00:43.107Z,18.20
2018-07-12T11:03:40.867Z,14.05
2018-07-12T11:06:38.628Z,11.08
2018-07-12T11:09:36.457Z,10.55
2018-07-12T11:12:34.160Z,15.23
2018-07-12T11:15:31.982Z,11.28
2018-07-12T11:18:29.675Z,13.25
2018-07-12T11:21:27.557Z,14.00
2018-07-12T11:24:25.448Z,13.90
2018-07-12T11:27:23.335Z,10.55
2018-07-12T11:30:21.120Z,10.90
2018-07-12T11:33:24.938Z,4.87
2018-07-12T11:36:22.899Z,7.80
2018-07-12T11:39:21.526Z,10.93
2018-07-12T11:42:19.506Z,8.10
2018-07-12T11:45:17.535Z,9.48
2018-07-12T11:48:15.161Z,6.33
2018-07-12T11:51:13.198Z,9.28
2018-07-12T11:54:10.941Z,10.60
2018-07-12T11:57:09.437Z,7.55
2018-07-12T12:00:07.667Z,5.80
2018-07-12T12:03:06.061Z,5.78
2018-07-12T12:06:03.786Z,10.50
2018-07-12T12:09:01.968Z,6.62
2018-07-12T12:11:59.768Z,5.22
2018-07-12T12:14:57.542Z,7.30
2018-07-12T12:17:56.483Z,7.05
2018-07-12T12:20:54.342Z,4.80
2018-07-12T12:23:52.184Z,5.28
2018-07-12T12:26:50.047Z,8.40
2018-07-12T12:29:47.893Z,5.50
2018-07-12T12:32:45.914Z,6.00
2018-07-12T12:35:43.652Z,7.42
2018-07-12T12:38:42.450Z,6.37
2018-07-12T12:41:40.347Z,5.60
2018-07-12T12:44:38.401Z,4.55
2018-07-12T12:47:36.030Z,3.70
2018-07-12T12:50:34.617Z,5.95
2018-07-12T12:53:32.637Z,5.60
2018-07-12T12:56:30.572Z,5.80
2018-07-12T12:59:28.313Z,3.67
2018-07-12T13:02:26.154Z,4.85
2018-07-12T13:05:23.934Z,3.22
2018-07-12T13:08:21.851Z,3.60
2018-07-12T13:11:19.670Z,3.80
2018-07-12T13:14:17.612Z,4.40
2018-07-12T13:17:15.329Z,3.80
2018-07-12T13:20:13.762Z,2.75
2018-07-12T13:23:11.576Z,4.65
2018-07-12T13:26:09.518Z,2.87
2018-07-12T13:29:07.083Z,4.30
2018-07-12T13:32:06.167Z,3.22
2018-07-12T13:35:03.823Z,4.45
2018-07-12T13:38:01.696Z,4.70
2018-07-12T13:40:59.416Z,3.45
2018-07-12T13:43:57.278Z,4.10
2018-07-12T13:46:56.077Z,2.90
2018-07-12T13:49:53.992Z,2.87
2018-07-12T13:52:52.575Z,3.25
2018-07-12T13:55:50.508Z,3.10
2018-07-12T13:58:48.285Z,4.10
2018-07-12T14:01:46.142Z,3.25
2018-07-12T14:04:43.847Z,2.80
2018-07-12T14:07:42.685Z,3.00
2018-07-12T14:10:40.351Z,3.05
2018-07-12T14:13:38.431Z,4.05
2018-07-12T14:16:36.046Z,3.35
2018-07-12T14:19:34.151Z,3.92
2018-07-12T14:22:31.903Z,2.90
2018-07-12T14:25:29.643Z,3.37
2018-07-12T14:28:27.679Z,2.58
2018-07-12T14:31:25.569Z,3.35
2018-07-12T14:34:23.863Z,3.52
2018-07-12T14:37:21.836Z,2.92
2018-07-12T14:40:19.675Z,2.70
2018-07-12T14:43:18.788Z,3.00
2018-07-12T14:46:17.541Z,3.05
2018-07-12T14:49:15.705Z,3.42
2018-07-12T14:52:13.332Z,3.35
2018-07-12T14:55:11.342Z,3.02
2018-07-12T14:58:09.005Z,2.75
2018-07-12T15:01:06.811Z,2.77
2018-07-12T15:04:04.565Z,3.50
2018-07-12T15:07:02.463Z,2.75
2018-07-12T15:10:00.373Z,3.08
2018-07-12T15:12:59.297Z,2.92
2018-07-12T15:15:56.854Z,3.10
2018-07-12T15:18:54.641Z,2.72
2018-07-12T15:21:52.435Z,3.80
2018-07-12T15:24:50.500Z,4.17
2018-07-12T15:27:48.577Z,3.40
2018-07-12T15:30:46.637Z,4.15
2018-07-12T15:33:45.081Z,3.50
2018-07-12T15:36:42.924Z,2.77
2018-07-12T15:39:41.793Z,3.15
2018-07-12T15:55:31.132Z,3.00
2018-07-12T15:58:28.974Z,3.10
2018-07-12T16:01:28.097Z,3.40
2018-07-12T16:04:25.847Z,2.90
2018-07-12T16:07:25.038Z,2.77
2018-07-12T16:10:23.055Z,2.58
2018-07-12T16:13:21.482Z,3.25
2018-07-12T16:16:19.375Z,2.83
2018-07-12T16:19:17.455Z,2.90
2018-07-12T16:22:15.623Z,2.83
2018-07-12T16:25:13.381Z,3.60
2018-07-12T16:28:11.118Z,3.35
2018-07-12T16:31:10.070Z,3.12
2018-07-12T16:34:07.903Z,2.92
2018-07-12T16:37:05.893Z,3.05
2018-07-12T16:40:03.398Z,3.25
2018-07-12T16:43:01.330Z,2.87
2018-07-12T16:46:00.509Z,3.45
2018-07-12T16:48:58.705Z,3.20
2018-07-12T16:51:56.431Z,3.00
2018-07-12T16:54:54.226Z,3.17
2018-07-12T16:57:52.131Z,3.00
2018-07-12T17:00:50.199Z,3.25
2018-07-12T17:03:47.873Z,3.27
2018-07-12T17:06:46.817Z,3.27
2018-07-12T17:09:44.521Z,2.90
2018-07-12T17:12:42.421Z,2.72
2018-07-12T17:15:40.205Z,4.72
2018-07-12T17:18:39.158Z,3.30
2018-07-12T17:21:36.875Z,3.67
2018-07-12T17:24:35.019Z,3.77
2018-07-12T17:27:32.644Z,3.90
2018-07-12T17:30:30.530Z,6.42
2018-07-12T17:33:29.457Z,11.48
2018-07-12T17:36:27.249Z,6.97
2018-07-12T17:39:24.945Z,9.18
2018-07-12T17:42:22.831Z,6.12
2018-07-12T17:45:21.545Z,8.00
2018-07-12T17:48:19.633Z,7.20
2018-07-12T17:51:17.375Z,5.70
2018-07-12T17:54:15.298Z,9.28
2018-07-12T17:57:13.056Z,4.95
2018-07-12T18:00:11.019Z,4.67
2018-07-12T18:03:08.980Z,7.37
2018-07-12T18:06:07.867Z,7.08
2018-07-12T18:09:05.594Z,4.15
2018-07-12T18:12:03.677Z,3.87
2018-07-12T18:15:01.719Z,5.20
2018-07-12T18:17:59.758Z,4.00
2018-07-12T18:20:58.991Z,5.70
2018-07-12T18:23:56.859Z,3.77
2018-07-12T18:26:54.704Z,5.05
2018-07-12T18:29:52.622Z,4.37
2018-07-12T18:32:50.405Z,5.78
2018-07-12T18:35:48.273Z,5.50
2018-07-12T18:38:45.886Z,3.70
2018-07-12T18:41:44.749Z,3.85
2018-07-12T18:44:42.535Z,5.97
2018-07-12T18:47:40.186Z,4.97
2018-07-12T18:50:37.971Z,4.28
2018-07-12T18:53:35.747Z,6.35
2018-07-12T18:56:33.466Z,4.28
2018-07-12T18:59:32.258Z,5.37
2018-07-12T19:02:30.061Z,4.65
2018-07-12T19:05:27.642Z,5.65
2018-07-12T19:08:25.319Z,5.12
2018-07-12T19:11:24.242Z,5.40
2018-07-12T19:14:22.332Z,4.45
2018-07-12T19:17:20.106Z,3.47
2018-07-12T19:20:18.260Z,4.37
2018-07-12T19:23:16.101Z,3.42
2018-07-12T19:26:14.359Z,3.17
2018-07-12T19:29:13.439Z,3.90
2018-07-12T19:32:11.499Z,5.35
2018-07-12T19:35:09.499Z,4.47
2018-07-12T19:38:07.538Z,4.80
2018-07-12T19:41:05.545Z,4.17
2018-07-12T19:44:03.384Z,4.25
2018-07-12T19:47:01.163Z,3.92
2018-07-12T19:49:58.933Z,4.28
2018-07-12T19:52:56.985Z,4.40
2018-07-12T19:55:55.559Z,4.22
2018-07-12T19:58:53.490Z,4.25
2018-07-12T20:01:51.197Z,3.47
2018-07-12T20:04:49.170Z,3.20
2018-07-12T20:07:46.741Z,4.37
2018-07-12T20:10:44.568Z,4.30
2018-07-12T20:13:42.372Z,3.80
2018-07-12T20:16:41.219Z,4.28
2018-07-12T20:19:38.923Z,3.15
2018-07-12T20:22:36.931Z,3.55
2018-07-12T20:25:35.179Z,3.95
2018-07-12T20:28:33.231Z,3.50
2018-07-12T20:31:30.895Z,4.37
2018-07-12T20:34:28.704Z,3.35
2018-07-12T20:37:27.732Z,3.20
2018-07-12T20:40:25.940Z,4.53
2018-07-12T20:43:24.608Z,4.45
2018-07-12T20:46:23.300Z,3.65
2018-07-12T20:49:21.108Z,4.03
2018-07-12T20:52:19.018Z,3.22
2018-07-12T20:55:16.971Z,4.65
2018-07-12T20:58:15.028Z,3.30
2018-07-12T21:01:13.808Z,3.40
2018-07-12T21:04:11.904Z,3.40
2018-07-12T21:07:11.441Z,3.42
2018-07-12T21:10:09.238Z,3.42
2018-07-12T21:13:07.042Z,3.45
2018-07-12T21:16:04.968Z,4.97
2018-07-12T21:19:02.775Z,3.40
2018-07-12T21:22:01.592Z,3.60
2018-07-12T21:24:59.196Z,3.50
2018-07-12T21:27:56.970Z,3.55
2018-07-12T21:30:55.700Z,3.75
2018-07-12T21:33:54.344Z,3.33
2018-07-12T21:36:52.080Z,3.70
2018-07-12T21:39:51.026Z,3.40
2018-07-12T21:42:48.857Z,3.60
2018-07-12T21:45:47.334Z,4.58
2018-07-12T21:48:44.905Z,3.33
2018-07-12T21:51:43.325Z,4.28
2018-07-12T21:54:41.786Z,6.72
2018-07-12T21:57:40.058Z,13.20
2018-07-12T22:00:39.754Z,28.65
2018-07-12T22:03:39.157Z,50.67
2018-07-12T22:06:46.067Z,44.80
2018-07-12T22:09:44.024Z,45.75
2018-07-12T22:12:41.566Z,44.63
2018-07-12T22:15:39.518Z,38.80
2018-07-12T22:18:38.281Z,40.45
2018-07-12T22:21:36.177Z,31.40
2018-07-12T22:24:34.186Z,30.17
2018-07-12T22:27:32.094Z,32.93
2018-07-12T22:30:29.889Z,23.55
2018-07-12T22:33:27.942Z,32.65
2018-07-12T22:36:25.487Z,28.57
2018-07-12T22:39:23.453Z,19.62
2018-07-12T22:42:21.234Z,22.15
2018-07-12T22:45:19.333Z,17.05
2018-07-12T22:48:17.240Z,30.60
2018-07-12T22:51:15.134Z,21.57
2018-07-12T22:54:12.692Z,20.60
2018-07-12T22:57:11.792Z,20.12
2018-07-12T23:00:09.404Z,21.05
2018-07-12T23:03:07.294Z,18.42
2018-07-12T23:06:04.921Z,13.70
2018-07-12T23:09:02.712Z,16.07
2018-07-12T23:12:00.573Z,18.98
2018-07-12T23:14:58.893Z,11.93
2018-07-12T23:17:56.612Z,17.52
2018-07-12T23:20:54.518Z,14.85
2018-07-12T23:23:52.074Z,13.28
2018-07-12T23:26:49.957Z,16.32
2018-07-12T23:29:47.678Z,16.20
2018-07-12T23:32:45.771Z,9.48
2018-07-12T23:35:43.420Z,13.00
2018-07-12T23:38:41.298Z,13.28
2018-07-12T23:41:38.868Z,14.85
2018-07-12T23:44:36.685Z,14.60
2018-07-12T23:47:34.246Z,17.17
2018-07-12T23:50:32.358Z,16.17
2018-07-12T23:53:29.938Z,10.95
2018-07-12T23:56:27.741Z,9.20
2018-07-12T23:59:26.411Z,11.45
